sensor_id;sensor_type;location;lat;lon;timestamp;P1;durP1;ratioP1;P2;durP2;ratioP2
37877;SDS011;23715;53.652;8.516;2022-11-15T00:02:35;67.22;;;61.28;;
37877;SDS011;23715;53.652;8.516;2022-11-15T00:07:53;65.90;;;60.08;;
37877;SDS011;23715;53.652;8.516;2022-11-15T00:13:12;68.50;;;62.45;;
37877;SDS011;23715;53.652;8.516;2022-11-15T00:18:31;69.28;;;63.22;;
37877;SDS011;23715;53.652;8.516;2022-11-15T00:23:50;69.58;;;63.20;;
37877;SDS011;23715;53.652;8.516;2022-11-15T00:29:08;69.00;;;62.75;;
37877;SDS011;23715;53.652;8.516;2022-11-15T00:34:26;66.50;;;60.45;;
37877;SDS011;23715;53.652;8.516;2022-11-15T00:39:44;67.20;;;61.13;;
37877;SDS011;23715;53.652;8.516;2022-11-15T00:45:03;66.33;;;60.43;;
37877;SDS011;23715;53.652;8.516;2022-11-15T00:50:22;64.75;;;58.78;;
37877;SDS011;23715;53.652;8.516;2022-11-15T00:55:40;63.92;;;58.25;;
37877;SDS011;23715;53.652;8.516;2022-11-15T01:01:05;62.65;;;56.73;;
37877;SDS011;23715;53.652;8.516;2022-11-15T01:06:25;65.32;;;59.33;;
37877;SDS011;23715;53.652;8.516;2022-11-15T01:11:44;65.17;;;58.95;;
37877;SDS011;23715;53.652;8.516;2022-11-15T01:17:02;64.37;;;58.63;;
37877;SDS011;23715;53.652;8.516;2022-11-15T01:22:20;63.80;;;58.00;;
37877;SDS011;23715;53.652;8.516;2022-11-15T01:27:39;64.37;;;58.83;;
37877;SDS011;23715;53.652;8.516;2022-11-15T01:32:58;64.32;;;58.30;;
37877;SDS011;23715;53.652;8.516;2022-11-15T01:38:17;65.00;;;59.15;;
37877;SDS011;23715;53.652;8.516;2022-11-15T01:43:36;63.13;;;57.40;;
37877;SDS011;23715;53.652;8.516;2022-11-15T01:48:54;65.45;;;59.38;;
37877;SDS011;23715;53.652;8.516;2022-11-15T01:54:15;61.27;;;55.70;;
37877;SDS011;23715;53.652;8.516;2022-11-15T01:59:37;61.35;;;55.92;;
37877;SDS011;23715;53.652;8.516;2022-11-15T02:04:57;64.12;;;58.50;;
37877;SDS011;23715;53.652;8.516;2022-11-15T02:10:19;62.43;;;56.90;;
37877;SDS011;23715;53.652;8.516;2022-11-15T02:15:40;63.85;;;58.63;;
37877;SDS011;23715;53.652;8.516;2022-11-15T02:21:24;66.55;;;60.80;;
37877;SDS011;23715;53.652;8.516;2022-11-15T02:27:03;66.90;;;61.05;;
37877;SDS011;23715;53.652;8.516;2022-11-15T02:43:12;63.45;;;57.93;;
37877;SDS011;23715;53.652;8.516;2022-11-15T02:48:50;68.00;;;62.43;;
37877;SDS011;23715;53.652;8.516;2022-11-15T02:54:23;66.20;;;60.33;;
37877;SDS011;23715;53.652;8.516;2022-11-15T02:59:57;67.47;;;61.63;;
37877;SDS011;23715;53.652;8.516;2022-11-15T03:05:24;67.47;;;61.70;;
37877;SDS011;23715;53.652;8.516;2022-11-15T03:21:55;68.60;;;62.73;;
37877;SDS011;23715;53.652;8.516;2022-11-15T03:27:15;68.27;;;62.67;;
37877;SDS011;23715;53.652;8.516;2022-11-15T03:32:41;68.47;;;62.48;;
37877;SDS011;23715;53.652;8.516;2022-11-15T03:38:11;67.03;;;61.37;;
37877;SDS011;23715;53.652;8.516;2022-11-15T03:49:09;67.22;;;61.55;;
37877;SDS011;23715;53.652;8.516;2022-11-15T03:54:31;66.54;;;61.12;;
37877;SDS011;23715;53.652;8.516;2022-11-15T03:59:50;68.22;;;62.43;;
37877;SDS011;23715;53.652;8.516;2022-11-15T04:05:08;68.17;;;62.38;;
37877;SDS011;23715;53.652;8.516;2022-11-15T04:10:26;67.37;;;61.75;;
37877;SDS011;23715;53.652;8.516;2022-11-15T04:15:45;71.47;;;65.57;;
37877;SDS011;23715;53.652;8.516;2022-11-15T04:21:03;67.08;;;61.40;;
37877;SDS011;23715;53.652;8.516;2022-11-15T04:26:39;67.62;;;62.03;;
37877;SDS011;23715;53.652;8.516;2022-11-15T04:31:57;66.90;;;61.08;;
37877;SDS011;23715;53.652;8.516;2022-11-15T04:37:16;70.20;;;64.47;;
37877;SDS011;23715;53.652;8.516;2022-11-15T04:42:34;74.25;;;67.82;;
37877;SDS011;23715;53.652;8.516;2022-11-15T04:47:53;69.30;;;62.98;;
37877;SDS011;23715;53.652;8.516;2022-11-15T04:53:11;71.70;;;65.43;;
37877;SDS011;23715;53.652;8.516;2022-11-15T04:58:29;70.22;;;64.20;;
37877;SDS011;23715;53.652;8.516;2022-11-15T05:03:48;75.25;;;68.57;;
37877;SDS011;23715;53.652;8.516;2022-11-15T05:09:25;75.95;;;69.07;;
37877;SDS011;23715;53.652;8.516;2022-11-15T05:14:43;74.97;;;68.75;;
37877;SDS011;23715;53.652;8.516;2022-11-15T05:20:01;75.00;;;68.33;;
37877;SDS011;23715;53.652;8.516;2022-11-15T05:25:19;73.97;;;67.47;;
37877;SDS011;23715;53.652;8.516;2022-11-15T05:30:38;74.20;;;67.70;;
37877;SDS011;23715;53.652;8.516;2022-11-15T05:36:15;72.65;;;66.35;;
37877;SDS011;23715;53.652;8.516;2022-11-15T05:41:47;75.22;;;68.97;;
37877;SDS011;23715;53.652;8.516;2022-11-15T05:47:10;80.53;;;73.35;;
37877;SDS011;23715;53.652;8.516;2022-11-15T05:52:31;74.25;;;67.85;;
37877;SDS011;23715;53.652;8.516;2022-11-15T05:57:52;72.95;;;66.62;;
37877;SDS011;23715;53.652;8.516;2022-11-15T06:03:11;86.47;;;78.20;;
37877;SDS011;23715;53.652;8.516;2022-11-15T06:08:30;86.78;;;78.67;;
37877;SDS011;23715;53.652;8.516;2022-11-15T06:13:48;86.85;;;78.67;;
37877;SDS011;23715;53.652;8.516;2022-11-15T06:19:07;85.07;;;77.12;;
37877;SDS011;23715;53.652;8.516;2022-11-15T06:24:25;87.27;;;79.25;;
37877;SDS011;23715;53.652;8.516;2022-11-15T06:29:44;74.25;;;68.15;;
37877;SDS011;23715;53.652;8.516;2022-11-15T06:35:03;75.62;;;69.03;;
37877;SDS011;23715;53.652;8.516;2022-11-15T06:40:22;71.17;;;65.03;;
37877;SDS011;23715;53.652;8.516;2022-11-15T06:45:40;70.10;;;63.92;;
37877;SDS011;23715;53.652;8.516;2022-11-15T06:51:00;68.30;;;62.57;;
37877;SDS011;23715;53.652;8.516;2022-11-15T06:56:19;76.13;;;69.93;;
37877;SDS011;23715;53.652;8.516;2022-11-15T07:01:37;69.42;;;63.70;;
37877;SDS011;23715;53.652;8.516;2022-11-15T07:06:56;75.30;;;69.60;;
37877;SDS011;23715;53.652;8.516;2022-11-15T07:12:15;73.00;;;67.50;;
37877;SDS011;23715;53.652;8.516;2022-11-15T07:17:34;70.85;;;65.10;;
37877;SDS011;23715;53.652;8.516;2022-11-15T07:22:58;70.03;;;64.80;;
37877;SDS011;23715;53.652;8.516;2022-11-15T07:28:18;85.25;;;77.92;;
37877;SDS011;23715;53.652;8.516;2022-11-15T07:33:36;95.75;;;87.88;;
37877;SDS011;23715;53.652;8.516;2022-11-15T07:38:55;75.28;;;69.67;;
37877;SDS011;23715;53.652;8.516;2022-11-15T07:44:13;71.47;;;65.97;;
37877;SDS011;23715;53.652;8.516;2022-11-15T07:49:31;72.03;;;66.62;;
37877;SDS011;23715;53.652;8.516;2022-11-15T07:54:50;71.57;;;66.07;;
37877;SDS011;23715;53.652;8.516;2022-11-15T08:00:08;68.05;;;62.73;;
37877;SDS011;23715;53.652;8.516;2022-11-15T08:05:27;69.85;;;64.45;;
37877;SDS011;23715;53.652;8.516;2022-11-15T08:10:45;73.05;;;67.62;;
37877;SDS011;23715;53.652;8.516;2022-11-15T08:16:04;70.60;;;64.97;;
37877;SDS011;23715;53.652;8.516;2022-11-15T08:21:22;67.85;;;62.88;;
37877;SDS011;23715;53.652;8.516;2022-11-15T08:26:41;69.03;;;64.03;;
37877;SDS011;23715;53.652;8.516;2022-11-15T08:32:00;77.27;;;71.35;;
37877;SDS011;23715;53.652;8.516;2022-11-15T08:37:18;91.53;;;83.30;;
37877;SDS011;23715;53.652;8.516;2022-11-15T08:42:37;98.20;;;88.40;;
37877;SDS011;23715;53.652;8.516;2022-11-15T08:47:56;77.25;;;70.83;;
37877;SDS011;23715;53.652;8.516;2022-11-15T08:53:14;74.70;;;68.35;;
37877;SDS011;23715;53.652;8.516;2022-11-15T08:58:33;94.45;;;84.95;;
37877;SDS011;23715;53.652;8.516;2022-11-15T09:03:52;89.67;;;80.60;;
37877;SDS011;23715;53.652;8.516;2022-11-15T09:09:11;86.43;;;78.63;;
37877;SDS011;23715;53.652;8.516;2022-11-15T09:14:29;87.67;;;79.82;;
37877;SDS011;23715;53.652;8.516;2022-11-15T09:19:48;78.47;;;71.50;;
37877;SDS011;23715;53.652;8.516;2022-11-15T09:25:06;87.08;;;78.92;;
37877;SDS011;23715;53.652;8.516;2022-11-15T09:30:25;73.02;;;67.58;;
37877;SDS011;23715;53.652;8.516;2022-11-15T09:35:43;75.00;;;69.47;;
37877;SDS011;23715;53.652;8.516;2022-11-15T09:46:49;71.30;;;66.05;;
37877;SDS011;23715;53.652;8.516;2022-11-15T09:52:09;70.00;;;64.75;;
37877;SDS011;23715;53.652;8.516;2022-11-15T10:12:35;67.65;;;62.88;;
37877;SDS011;23715;53.652;8.516;2022-11-15T10:27:51;68.50;;;63.48;;
37877;SDS011;23715;53.652;8.516;2022-11-15T10:33:17;70.47;;;64.70;;
37877;SDS011;23715;53.652;8.516;2022-11-15T10:38:13;70.28;;;65.20;;
37877;SDS011;23715;53.652;8.516;2022-11-15T10:43:16;69.95;;;64.75;;
37877;SDS011;23715;53.652;8.516;2022-11-15T10:53:22;68.62;;;63.52;;
37877;SDS011;23715;53.652;8.516;2022-11-15T10:58:43;68.20;;;63.28;;
37877;SDS011;23715;53.652;8.516;2022-11-15T11:03:57;66.87;;;62.17;;
37877;SDS011;23715;53.652;8.516;2022-11-15T11:09:02;75.08;;;69.47;;
37877;SDS011;23715;53.652;8.516;2022-11-15T11:19:32;66.90;;;62.00;;
37877;SDS011;23715;53.652;8.516;2022-11-15T11:35:19;64.10;;;59.37;;
37877;SDS011;23715;53.652;8.516;2022-11-15T11:40:28;64.37;;;59.73;;
37877;SDS011;23715;53.652;8.516;2022-11-15T11:50:42;67.90;;;63.15;;
37877;SDS011;23715;53.652;8.516;2022-11-15T11:55:49;68.28;;;63.58;;
37877;SDS011;23715;53.652;8.516;2022-11-15T12:00:55;70.37;;;65.43;;
37877;SDS011;23715;53.652;8.516;2022-11-15T12:05:59;69.65;;;64.55;;
37877;SDS011;23715;53.652;8.516;2022-11-15T12:11:07;63.78;;;59.38;;
37877;SDS011;23715;53.652;8.516;2022-11-15T12:16:11;59.70;;;55.40;;
37877;SDS011;23715;53.652;8.516;2022-11-15T12:21:29;62.13;;;57.73;;
37877;SDS011;23715;53.652;8.516;2022-11-15T12:26:42;62.05;;;57.48;;
37877;SDS011;23715;53.652;8.516;2022-11-15T12:31:44;60.17;;;55.95;;
37877;SDS011;23715;53.652;8.516;2022-11-15T12:36:47;57.73;;;53.80;;
37877;SDS011;23715;53.652;8.516;2022-11-15T12:47:24;60.92;;;56.77;;
37877;SDS011;23715;53.652;8.516;2022-11-15T12:52:26;57.08;;;53.50;;
37877;SDS011;23715;53.652;8.516;2022-11-15T13:17:52;57.45;;;53.85;;
37877;SDS011;23715;53.652;8.516;2022-11-15T13:23:13;59.42;;;55.58;;
37877;SDS011;23715;53.652;8.516;2022-11-15T13:43:28;59.60;;;55.70;;
37877;SDS011;23715;53.652;8.516;2022-11-15T13:48:34;57.95;;;53.95;;
37877;SDS011;23715;53.652;8.516;2022-11-15T13:53:34;58.52;;;54.88;;
37877;SDS011;23715;53.652;8.516;2022-11-15T13:58:38;62.65;;;58.65;;
37877;SDS011;23715;53.652;8.516;2022-11-15T14:03:41;58.40;;;54.50;;
37877;SDS011;23715;53.652;8.516;2022-11-15T14:09:02;62.27;;;58.30;;
37877;SDS011;23715;53.652;8.516;2022-11-15T14:24:29;58.52;;;54.75;;
37877;SDS011;23715;53.652;8.516;2022-11-15T14:29:30;61.48;;;57.48;;
37877;SDS011;23715;53.652;8.516;2022-11-15T14:34:31;60.48;;;56.55;;
37877;SDS011;23715;53.652;8.516;2022-11-15T14:39:32;60.05;;;56.13;;
37877;SDS011;23715;53.652;8.516;2022-11-15T14:44:32;59.30;;;55.20;;
37877;SDS011;23715;53.652;8.516;2022-11-15T14:49:39;59.65;;;55.75;;
37877;SDS011;23715;53.652;8.516;2022-11-15T14:54:35;58.10;;;54.38;;
37877;SDS011;23715;53.652;8.516;2022-11-15T14:59:36;57.73;;;53.87;;
37877;SDS011;23715;53.652;8.516;2022-11-15T15:09:36;58.35;;;54.77;;
37877;SDS011;23715;53.652;8.516;2022-11-15T15:14:36;57.67;;;53.95;;
37877;SDS011;23715;53.652;8.516;2022-11-15T15:19:37;58.75;;;55.17;;
37877;SDS011;23715;53.652;8.516;2022-11-15T15:24:37;61.97;;;58.03;;
37877;SDS011;23715;53.652;8.516;2022-11-15T15:29:38;58.63;;;54.95;;
37877;SDS011;23715;53.652;8.516;2022-11-15T15:34:39;58.85;;;54.88;;
37877;SDS011;23715;53.652;8.516;2022-11-15T15:44:39;54.88;;;51.65;;
37877;SDS011;23715;53.652;8.516;2022-11-15T15:49:39;54.05;;;50.73;;
37877;SDS011;23715;53.652;8.516;2022-11-15T15:59:40;54.23;;;50.83;;
37877;SDS011;23715;53.652;8.516;2022-11-15T16:09:40;51.00;;;48.02;;
37877;SDS011;23715;53.652;8.516;2022-11-15T16:14:59;53.48;;;50.33;;
37877;SDS011;23715;53.652;8.516;2022-11-15T16:20:00;55.55;;;52.13;;
37877;SDS011;23715;53.652;8.516;2022-11-15T16:25:01;56.48;;;52.88;;
37877;SDS011;23715;53.652;8.516;2022-11-15T16:30:01;67.47;;;62.33;;
37877;SDS011;23715;53.652;8.516;2022-11-15T16:35:02;54.60;;;51.30;;
37877;SDS011;23715;53.652;8.516;2022-11-15T16:40:03;53.83;;;50.65;;
37877;SDS011;23715;53.652;8.516;2022-11-15T16:45:04;54.77;;;51.42;;
37877;SDS011;23715;53.652;8.516;2022-11-15T16:50:05;54.65;;;51.33;;
37877;SDS011;23715;53.652;8.516;2022-11-15T16:55:07;53.33;;;50.15;;
37877;SDS011;23715;53.652;8.516;2022-11-15T17:00:12;55.78;;;52.30;;
37877;SDS011;23715;53.652;8.516;2022-11-15T17:05:17;60.38;;;56.77;;
37877;SDS011;23715;53.652;8.516;2022-11-15T17:10:20;59.10;;;55.20;;
37877;SDS011;23715;53.652;8.516;2022-11-15T17:15:21;55.65;;;52.45;;
37877;SDS011;23715;53.652;8.516;2022-11-15T17:20:22;59.85;;;56.13;;
37877;SDS011;23715;53.652;8.516;2022-11-15T17:25:24;55.75;;;52.55;;
37877;SDS011;23715;53.652;8.516;2022-11-15T17:30:24;57.50;;;54.10;;
37877;SDS011;23715;53.652;8.516;2022-11-15T17:35:24;57.13;;;53.65;;
37877;SDS011;23715;53.652;8.516;2022-11-15T17:40:25;58.68;;;55.08;;
37877;SDS011;23715;53.652;8.516;2022-11-15T17:50:24;56.23;;;52.70;;
37877;SDS011;23715;53.652;8.516;2022-11-15T17:55:25;56.33;;;52.93;;
37877;SDS011;23715;53.652;8.516;2022-11-15T18:00:25;53.98;;;50.67;;
37877;SDS011;23715;53.652;8.516;2022-11-15T18:05:26;55.73;;;52.23;;
37877;SDS011;23715;53.652;8.516;2022-11-15T18:10:26;57.45;;;53.85;;
37877;SDS011;23715;53.652;8.516;2022-11-15T18:15:27;65.90;;;61.60;;
37877;SDS011;23715;53.652;8.516;2022-11-15T18:20:27;113.37;;;104.43;;
37877;SDS011;23715;53.652;8.516;2022-11-15T18:25:27;63.50;;;59.58;;
37877;SDS011;23715;53.652;8.516;2022-11-15T18:30:28;60.60;;;57.20;;
37877;SDS011;23715;53.652;8.516;2022-11-15T18:35:28;60.63;;;56.98;;
37877;SDS011;23715;53.652;8.516;2022-11-15T18:45:28;60.40;;;56.90;;
37877;SDS011;23715;53.652;8.516;2022-11-15T18:50:29;64.65;;;60.80;;
37877;SDS011;23715;53.652;8.516;2022-11-15T18:55:29;61.42;;;57.20;;
37877;SDS011;23715;53.652;8.516;2022-11-15T19:00:30;60.75;;;57.15;;
37877;SDS011;23715;53.652;8.516;2022-11-15T19:10:33;57.00;;;53.67;;
37877;SDS011;23715;53.652;8.516;2022-11-15T19:15:33;57.55;;;53.95;;
37877;SDS011;23715;53.652;8.516;2022-11-15T19:20:34;58.45;;;55.05;;
37877;SDS011;23715;53.652;8.516;2022-11-15T19:25:34;56.90;;;53.63;;
37877;SDS011;23715;53.652;8.516;2022-11-15T19:30:35;58.52;;;55.08;;
37877;SDS011;23715;53.652;8.516;2022-11-15T19:35:35;58.73;;;55.33;;
37877;SDS011;23715;53.652;8.516;2022-11-15T19:45:36;56.33;;;52.88;;
37877;SDS011;23715;53.652;8.516;2022-11-15T19:50:36;58.65;;;55.17;;
37877;SDS011;23715;53.652;8.516;2022-11-15T19:55:36;56.77;;;53.23;;
37877;SDS011;23715;53.652;8.516;2022-11-15T20:00:37;56.68;;;53.35;;
37877;SDS011;23715;53.652;8.516;2022-11-15T20:05:37;61.53;;;57.65;;
37877;SDS011;23715;53.652;8.516;2022-11-15T20:15:37;58.33;;;54.73;;
37877;SDS011;23715;53.652;8.516;2022-11-15T20:25:37;60.88;;;57.27;;
37877;SDS011;23715;53.652;8.516;2022-11-15T20:30:38;59.57;;;55.97;;
37877;SDS011;23715;53.652;8.516;2022-11-15T20:35:43;61.65;;;57.65;;
37877;SDS011;23715;53.652;8.516;2022-11-15T20:41:01;61.80;;;57.90;;
37877;SDS011;23715;53.652;8.516;2022-11-15T20:46:12;59.53;;;56.03;;
37877;SDS011;23715;53.652;8.516;2022-11-15T20:56:17;62.03;;;58.20;;
37877;SDS011;23715;53.652;8.516;2022-11-15T21:01:19;59.15;;;55.67;;
37877;SDS011;23715;53.652;8.516;2022-11-15T21:06:22;56.15;;;52.65;;
37877;SDS011;23715;53.652;8.516;2022-11-15T21:11:24;55.27;;;51.67;;
37877;SDS011;23715;53.652;8.516;2022-11-15T21:16:42;57.90;;;54.20;;
37877;SDS011;23715;53.652;8.516;2022-11-15T21:21:42;55.17;;;51.80;;
37877;SDS011;23715;53.652;8.516;2022-11-15T21:26:43;59.42;;;55.55;;
37877;SDS011;23715;53.652;8.516;2022-11-15T21:31:44;55.50;;;51.75;;
37877;SDS011;23715;53.652;8.516;2022-11-15T21:36:45;51.73;;;48.57;;
37877;SDS011;23715;53.652;8.516;2022-11-15T21:41:46;52.83;;;49.30;;
37877;SDS011;23715;53.652;8.516;2022-11-15T21:46:46;52.38;;;49.00;;
37877;SDS011;23715;53.652;8.516;2022-11-15T21:51:47;52.13;;;48.78;;
37877;SDS011;23715;53.652;8.516;2022-11-15T21:56:47;55.25;;;51.83;;
37877;SDS011;23715;53.652;8.516;2022-11-15T22:01:48;54.40;;;50.90;;
37877;SDS011;23715;53.652;8.516;2022-11-15T22:07:06;52.48;;;49.25;;
37877;SDS011;23715;53.652;8.516;2022-11-15T22:12:06;54.20;;;50.38;;
37877;SDS011;23715;53.652;8.516;2022-11-15T22:17:10;54.73;;;51.13;;
37877;SDS011;23715;53.652;8.516;2022-11-15T22:22:10;54.48;;;50.78;;
37877;SDS011;23715;53.652;8.516;2022-11-15T22:27:11;54.60;;;51.30;;
37877;SDS011;23715;53.652;8.516;2022-11-15T22:32:11;52.25;;;48.80;;
37877;SDS011;23715;53.652;8.516;2022-11-15T22:37:12;52.13;;;48.83;;
37877;SDS011;23715;53.652;8.516;2022-11-15T22:42:12;50.30;;;47.20;;
37877;SDS011;23715;53.652;8.516;2022-11-15T22:47:13;50.12;;;47.05;;
37877;SDS011;23715;53.652;8.516;2022-11-15T22:57:13;51.00;;;47.70;;
37877;SDS011;23715;53.652;8.516;2022-11-15T23:07:13;49.98;;;46.88;;
37877;SDS011;23715;53.652;8.516;2022-11-15T23:17:31;49.58;;;46.37;;
37877;SDS011;23715;53.652;8.516;2022-11-15T23:27:46;49.05;;;45.75;;
37877;SDS011;23715;53.652;8.516;2022-11-15T23:37:54;48.23;;;45.05;;
37877;SDS011;23715;53.652;8.516;2022-11-15T23:47:55;47.77;;;44.40;;
37877;SDS011;23715;53.652;8.516;2022-11-15T23:52:57;48.73;;;45.52;;
37877;SDS011;23715;53.652;8.516;2022-11-15T23:57:58;48.40;;;45.40;;
